sensor_id;sensor_type;location;lat;lon;timestamp;P1;durP1;ratioP1;P2;durP2;ratioP2
40154;SDS011;25875;48.202;16.334;2023-07-13T00:01:14;4.15;;;2.78;;
40154;SDS011;25875;48.202;16.334;2023-07-13T00:03:42;5.03;;;2.95;;
40154;SDS011;25875;48.202;16.334;2023-07-13T00:06:09;4.20;;;3.15;;
40154;SDS011;25875;48.202;16.334;2023-07-13T00:08:36;4.03;;;2.55;;
40154;SDS011;25875;48.202;16.334;2023-07-13T00:11:03;3.42;;;2.40;;
40154;SDS011;25875;48.202;16.334;2023-07-13T00:13:31;5.60;;;2.80;;
40154;SDS011;25875;48.202;16.334;2023-07-13T00:15:58;3.55;;;1.90;;
40154;SDS011;25875;48.202;16.334;2023-07-13T00:18:27;4.03;;;2.03;;
40154;SDS011;25875;48.202;16.334;2023-07-13T00:20:55;2.72;;;1.80;;
40154;SDS011;25875;48.202;16.334;2023-07-13T00:23:30;4.03;;;2.17;;
40154;SDS011;25875;48.202;16.334;2023-07-13T00:25:59;3.95;;;3.05;;
40154;SDS011;25875;48.202;16.334;2023-07-13T00:28:25;3.42;;;2.00;;
40154;SDS011;25875;48.202;16.334;2023-07-13T00:30:52;3.75;;;2.80;;
40154;SDS011;25875;48.202;16.334;2023-07-13T00:33:19;4.25;;;2.67;;
40154;SDS011;25875;48.202;16.334;2023-07-13T00:35:47;3.65;;;2.30;;
40154;SDS011;25875;48.202;16.334;2023-07-13T00:38:14;3.60;;;2.03;;
40154;SDS011;25875;48.202;16.334;2023-07-13T00:40:41;2.97;;;1.80;;
40154;SDS011;25875;48.202;16.334;2023-07-13T00:43:09;3.33;;;1.90;;
40154;SDS011;25875;48.202;16.334;2023-07-13T00:48:49;3.58;;;1.80;;
40154;SDS011;25875;48.202;16.334;2023-07-13T00:51:20;3.75;;;2.00;;
40154;SDS011;25875;48.202;16.334;2023-07-13T00:53:52;3.85;;;2.10;;
40154;SDS011;25875;48.202;16.334;2023-07-13T00:56:20;3.22;;;1.83;;
40154;SDS011;25875;48.202;16.334;2023-07-13T00:58:47;3.17;;;1.83;;
40154;SDS011;25875;48.202;16.334;2023-07-13T01:01:15;4.82;;;2.08;;
40154;SDS011;25875;48.202;16.334;2023-07-13T01:03:42;3.17;;;1.70;;
40154;SDS011;25875;48.202;16.334;2023-07-13T01:06:09;4.65;;;2.50;;
40154;SDS011;25875;48.202;16.334;2023-07-13T01:08:37;2.30;;;1.50;;
40154;SDS011;25875;48.202;16.334;2023-07-13T01:11:05;2.75;;;1.83;;
40154;SDS011;25875;48.202;16.334;2023-07-13T01:13:33;2.65;;;1.60;;
40154;SDS011;25875;48.202;16.334;2023-07-13T01:16:01;2.63;;;1.67;;
40154;SDS011;25875;48.202;16.334;2023-07-13T01:18:33;5.25;;;2.03;;
40154;SDS011;25875;48.202;16.334;2023-07-13T01:21:02;2.75;;;1.60;;
40154;SDS011;25875;48.202;16.334;2023-07-13T01:23:30;2.83;;;1.60;;
40154;SDS011;25875;48.202;16.334;2023-07-13T01:25:58;3.42;;;1.67;;
40154;SDS011;25875;48.202;16.334;2023-07-13T01:28:26;2.78;;;1.48;;
40154;SDS011;25875;48.202;16.334;2023-07-13T01:30:53;3.60;;;1.63;;
40154;SDS011;25875;48.202;16.334;2023-07-13T01:33:21;2.35;;;1.40;;
40154;SDS011;25875;48.202;16.334;2023-07-13T01:35:47;3.38;;;1.55;;
40154;SDS011;25875;48.202;16.334;2023-07-13T01:38:17;4.15;;;1.90;;
40154;SDS011;25875;48.202;16.334;2023-07-13T01:40:45;3.50;;;1.75;;
40154;SDS011;25875;48.202;16.334;2023-07-13T01:43:12;3.35;;;2.17;;
40154;SDS011;25875;48.202;16.334;2023-07-13T01:45:39;2.58;;;1.60;;
40154;SDS011;25875;48.202;16.334;2023-07-13T01:48:06;2.28;;;1.35;;
40154;SDS011;25875;48.202;16.334;2023-07-13T01:50:33;2.60;;;1.55;;
40154;SDS011;25875;48.202;16.334;2023-07-13T01:53:00;2.55;;;1.50;;
40154;SDS011;25875;48.202;16.334;2023-07-13T01:55:28;3.63;;;1.90;;
40154;SDS011;25875;48.202;16.334;2023-07-13T01:57:55;2.75;;;1.77;;
40154;SDS011;25875;48.202;16.334;2023-07-13T02:00:22;2.97;;;1.60;;
40154;SDS011;25875;48.202;16.334;2023-07-13T02:02:49;2.88;;;1.70;;
40154;SDS011;25875;48.202;16.334;2023-07-13T02:05:17;2.30;;;1.52;;
40154;SDS011;25875;48.202;16.334;2023-07-13T02:07:43;2.63;;;1.75;;
40154;SDS011;25875;48.202;16.334;2023-07-13T02:10:11;3.58;;;1.70;;
40154;SDS011;25875;48.202;16.334;2023-07-13T02:12:40;3.03;;;1.50;;
40154;SDS011;25875;48.202;16.334;2023-07-13T02:15:16;2.67;;;1.77;;
40154;SDS011;25875;48.202;16.334;2023-07-13T02:17:43;3.38;;;2.10;;
40154;SDS011;25875;48.202;16.334;2023-07-13T02:20:10;3.33;;;1.83;;
40154;SDS011;25875;48.202;16.334;2023-07-13T02:22:37;2.58;;;1.40;;
40154;SDS011;25875;48.202;16.334;2023-07-13T02:25:04;3.35;;;1.77;;
40154;SDS011;25875;48.202;16.334;2023-07-13T02:27:31;2.75;;;1.85;;
40154;SDS011;25875;48.202;16.334;2023-07-13T02:29:59;3.83;;;1.90;;
40154;SDS011;25875;48.202;16.334;2023-07-13T02:32:26;4.78;;;2.10;;
40154;SDS011;25875;48.202;16.334;2023-07-13T02:34:53;2.50;;;1.73;;
40154;SDS011;25875;48.202;16.334;2023-07-13T02:37:20;5.10;;;2.10;;
40154;SDS011;25875;48.202;16.334;2023-07-13T02:39:46;11.65;;;2.90;;
40154;SDS011;25875;48.202;16.334;2023-07-13T02:42:13;3.65;;;1.90;;
40154;SDS011;25875;48.202;16.334;2023-07-13T02:44:40;2.55;;;1.90;;
40154;SDS011;25875;48.202;16.334;2023-07-13T02:47:08;2.65;;;1.85;;
40154;SDS011;25875;48.202;16.334;2023-07-13T02:49:35;3.85;;;1.80;;
40154;SDS011;25875;48.202;16.334;2023-07-13T02:52:02;2.75;;;1.83;;
40154;SDS011;25875;48.202;16.334;2023-07-13T02:54:30;5.07;;;2.20;;
40154;SDS011;25875;48.202;16.334;2023-07-13T02:56:56;3.10;;;2.10;;
40154;SDS011;25875;48.202;16.334;2023-07-13T02:59:23;2.92;;;1.80;;
40154;SDS011;25875;48.202;16.334;2023-07-13T03:01:49;5.68;;;2.30;;
40154;SDS011;25875;48.202;16.334;2023-07-13T03:04:18;3.70;;;2.03;;
40154;SDS011;25875;48.202;16.334;2023-07-13T03:06:45;4.10;;;1.77;;
40154;SDS011;25875;48.202;16.334;2023-07-13T03:09:12;3.40;;;2.05;;
40154;SDS011;25875;48.202;16.334;2023-07-13T03:11:39;7.72;;;2.17;;
40154;SDS011;25875;48.202;16.334;2023-07-13T03:14:06;2.90;;;1.98;;
40154;SDS011;25875;48.202;16.334;2023-07-13T03:16:33;2.92;;;2.10;;
40154;SDS011;25875;48.202;16.334;2023-07-13T03:19:00;4.10;;;2.33;;
40154;SDS011;25875;48.202;16.334;2023-07-13T03:21:28;2.83;;;1.88;;
40154;SDS011;25875;48.202;16.334;2023-07-13T03:23:55;3.50;;;2.25;;
40154;SDS011;25875;48.202;16.334;2023-07-13T03:26:21;6.20;;;2.13;;
40154;SDS011;25875;48.202;16.334;2023-07-13T03:28:48;3.65;;;2.08;;
40154;SDS011;25875;48.202;16.334;2023-07-13T03:31:15;2.60;;;1.67;;
40154;SDS011;25875;48.202;16.334;2023-07-13T03:33:44;4.35;;;2.00;;
40154;SDS011;25875;48.202;16.334;2023-07-13T03:36:13;3.58;;;1.80;;
40154;SDS011;25875;48.202;16.334;2023-07-13T03:38:45;3.63;;;2.20;;
40154;SDS011;25875;48.202;16.334;2023-07-13T03:41:13;2.55;;;1.58;;
40154;SDS011;25875;48.202;16.334;2023-07-13T03:43:40;4.40;;;2.10;;
40154;SDS011;25875;48.202;16.334;2023-07-13T03:46:06;3.28;;;1.88;;
40154;SDS011;25875;48.202;16.334;2023-07-13T03:48:33;3.22;;;1.60;;
40154;SDS011;25875;48.202;16.334;2023-07-13T03:51:00;4.20;;;2.42;;
40154;SDS011;25875;48.202;16.334;2023-07-13T03:53:27;2.70;;;1.80;;
40154;SDS011;25875;48.202;16.334;2023-07-13T03:55:56;4.97;;;1.90;;
40154;SDS011;25875;48.202;16.334;2023-07-13T03:58:24;2.30;;;1.52;;
40154;SDS011;25875;48.202;16.334;2023-07-13T04:00:55;4.45;;;2.53;;
40154;SDS011;25875;48.202;16.334;2023-07-13T04:03:23;4.03;;;1.80;;
40154;SDS011;25875;48.202;16.334;2023-07-13T04:05:53;3.10;;;2.10;;
40154;SDS011;25875;48.202;16.334;2023-07-13T04:08:25;3.25;;;1.90;;
40154;SDS011;25875;48.202;16.334;2023-07-13T04:10:53;3.17;;;1.80;;
40154;SDS011;25875;48.202;16.334;2023-07-13T04:13:21;4.32;;;2.53;;
40154;SDS011;25875;48.202;16.334;2023-07-13T04:15:48;3.10;;;1.90;;
40154;SDS011;25875;48.202;16.334;2023-07-13T04:18:16;3.28;;;2.00;;
40154;SDS011;25875;48.202;16.334;2023-07-13T04:20:43;2.85;;;1.55;;
40154;SDS011;25875;48.202;16.334;2023-07-13T04:23:10;2.95;;;1.85;;
40154;SDS011;25875;48.202;16.334;2023-07-13T04:25:37;5.05;;;2.40;;
40154;SDS011;25875;48.202;16.334;2023-07-13T04:28:04;3.38;;;2.10;;
40154;SDS011;25875;48.202;16.334;2023-07-13T04:30:33;3.30;;;2.40;;
40154;SDS011;25875;48.202;16.334;2023-07-13T04:32:59;5.55;;;2.15;;
40154;SDS011;25875;48.202;16.334;2023-07-13T04:35:26;3.33;;;1.88;;
40154;SDS011;25875;48.202;16.334;2023-07-13T04:37:53;4.78;;;2.28;;
40154;SDS011;25875;48.202;16.334;2023-07-13T04:40:19;3.85;;;2.33;;
40154;SDS011;25875;48.202;16.334;2023-07-13T04:42:46;4.20;;;1.95;;
40154;SDS011;25875;48.202;16.334;2023-07-13T04:45:13;3.10;;;1.90;;
40154;SDS011;25875;48.202;16.334;2023-07-13T04:47:42;3.05;;;2.13;;
40154;SDS011;25875;48.202;16.334;2023-07-13T04:50:09;3.08;;;2.03;;
40154;SDS011;25875;48.202;16.334;2023-07-13T04:52:36;3.85;;;2.40;;
40154;SDS011;25875;48.202;16.334;2023-07-13T04:55:04;4.90;;;2.80;;
40154;SDS011;25875;48.202;16.334;2023-07-13T04:57:31;3.53;;;2.45;;
40154;SDS011;25875;48.202;16.334;2023-07-13T04:59:57;4.10;;;2.25;;
40154;SDS011;25875;48.202;16.334;2023-07-13T05:02:26;3.55;;;1.88;;
40154;SDS011;25875;48.202;16.334;2023-07-13T05:04:54;3.42;;;1.90;;
40154;SDS011;25875;48.202;16.334;2023-07-13T05:07:21;3.63;;;2.08;;
40154;SDS011;25875;48.202;16.334;2023-07-13T05:09:48;3.40;;;1.98;;
40154;SDS011;25875;48.202;16.334;2023-07-13T05:12:15;3.13;;;2.00;;
40154;SDS011;25875;48.202;16.334;2023-07-13T05:14:41;4.07;;;2.13;;
40154;SDS011;25875;48.202;16.334;2023-07-13T05:17:08;3.78;;;2.83;;
40154;SDS011;25875;48.202;16.334;2023-07-13T05:19:35;4.63;;;2.30;;
40154;SDS011;25875;48.202;16.334;2023-07-13T05:22:04;3.55;;;1.80;;
40154;SDS011;25875;48.202;16.334;2023-07-13T05:24:30;3.05;;;1.60;;
40154;SDS011;25875;48.202;16.334;2023-07-13T05:26:57;4.15;;;1.63;;
40154;SDS011;25875;48.202;16.334;2023-07-13T05:29:24;3.35;;;1.60;;
40154;SDS011;25875;48.202;16.334;2023-07-13T05:31:51;2.70;;;1.65;;
40154;SDS011;25875;48.202;16.334;2023-07-13T05:34:17;2.28;;;1.40;;
40154;SDS011;25875;48.202;16.334;2023-07-13T05:36:44;2.05;;;1.40;;
40154;SDS011;25875;48.202;16.334;2023-07-13T05:39:12;3.78;;;1.60;;
40154;SDS011;25875;48.202;16.334;2023-07-13T05:41:39;2.78;;;1.73;;
40154;SDS011;25875;48.202;16.334;2023-07-13T05:44:05;2.15;;;1.45;;
40154;SDS011;25875;48.202;16.334;2023-07-13T05:46:32;2.65;;;1.70;;
40154;SDS011;25875;48.202;16.334;2023-07-13T05:48:59;2.88;;;1.45;;
40154;SDS011;25875;48.202;16.334;2023-07-13T05:51:26;2.30;;;1.50;;
40154;SDS011;25875;48.202;16.334;2023-07-13T05:53:53;3.00;;;1.90;;
40154;SDS011;25875;48.202;16.334;2023-07-13T05:56:21;3.28;;;2.03;;
40154;SDS011;25875;48.202;16.334;2023-07-13T05:58:48;3.72;;;2.05;;
40154;SDS011;25875;48.202;16.334;2023-07-13T06:01:15;3.03;;;1.95;;
40154;SDS011;25875;48.202;16.334;2023-07-13T06:03:42;2.83;;;1.90;;
40154;SDS011;25875;48.202;16.334;2023-07-13T06:06:10;3.17;;;1.80;;
40154;SDS011;25875;48.202;16.334;2023-07-13T06:08:37;2.63;;;1.80;;
40154;SDS011;25875;48.202;16.334;2023-07-13T06:11:04;3.30;;;1.60;;
40154;SDS011;25875;48.202;16.334;2023-07-13T06:13:34;3.78;;;2.03;;
40154;SDS011;25875;48.202;16.334;2023-07-13T06:16:01;3.13;;;1.55;;
40154;SDS011;25875;48.202;16.334;2023-07-13T06:18:31;3.20;;;1.90;;
40154;SDS011;25875;48.202;16.334;2023-07-13T06:20:58;2.53;;;1.63;;
40154;SDS011;25875;48.202;16.334;2023-07-13T06:23:25;3.15;;;1.70;;
40154;SDS011;25875;48.202;16.334;2023-07-13T06:25:52;3.22;;;1.70;;
40154;SDS011;25875;48.202;16.334;2023-07-13T06:28:19;4.75;;;2.03;;
40154;SDS011;25875;48.202;16.334;2023-07-13T06:30:47;2.92;;;1.75;;
40154;SDS011;25875;48.202;16.334;2023-07-13T06:33:13;4.15;;;2.17;;
40154;SDS011;25875;48.202;16.334;2023-07-13T06:35:40;3.17;;;1.63;;
40154;SDS011;25875;48.202;16.334;2023-07-13T06:38:07;2.75;;;1.60;;
40154;SDS011;25875;48.202;16.334;2023-07-13T06:40:33;3.33;;;1.80;;
40154;SDS011;25875;48.202;16.334;2023-07-13T06:43:00;2.85;;;1.70;;
40154;SDS011;25875;48.202;16.334;2023-07-13T06:45:27;4.05;;;1.80;;
40154;SDS011;25875;48.202;16.334;2023-07-13T06:47:55;4.65;;;2.00;;
40154;SDS011;25875;48.202;16.334;2023-07-13T06:50:22;2.70;;;1.60;;
40154;SDS011;25875;48.202;16.334;2023-07-13T06:52:49;2.70;;;1.70;;
40154;SDS011;25875;48.202;16.334;2023-07-13T06:55:15;3.92;;;1.55;;
40154;SDS011;25875;48.202;16.334;2023-07-13T06:57:42;2.70;;;1.60;;
40154;SDS011;25875;48.202;16.334;2023-07-13T07:00:09;2.38;;;1.80;;
40154;SDS011;25875;48.202;16.334;2023-07-13T07:02:37;2.15;;;1.60;;
40154;SDS011;25875;48.202;16.334;2023-07-13T07:05:06;2.53;;;1.58;;
40154;SDS011;25875;48.202;16.334;2023-07-13T07:07:33;2.95;;;1.75;;
40154;SDS011;25875;48.202;16.334;2023-07-13T07:10:00;3.47;;;1.63;;
40154;SDS011;25875;48.202;16.334;2023-07-13T07:12:28;3.88;;;1.77;;
40154;SDS011;25875;48.202;16.334;2023-07-13T07:14:55;2.85;;;1.58;;
40154;SDS011;25875;48.202;16.334;2023-07-13T07:17:21;2.88;;;1.70;;
40154;SDS011;25875;48.202;16.334;2023-07-13T07:19:48;2.33;;;1.67;;
40154;SDS011;25875;48.202;16.334;2023-07-13T07:22:16;2.58;;;1.67;;
40154;SDS011;25875;48.202;16.334;2023-07-13T07:24:43;2.50;;;1.70;;
40154;SDS011;25875;48.202;16.334;2023-07-13T07:27:09;3.10;;;1.77;;
40154;SDS011;25875;48.202;16.334;2023-07-13T07:29:36;3.35;;;1.60;;
40154;SDS011;25875;48.202;16.334;2023-07-13T07:32:03;2.67;;;1.67;;
40154;SDS011;25875;48.202;16.334;2023-07-13T07:34:30;2.67;;;1.77;;
40154;SDS011;25875;48.202;16.334;2023-07-13T07:36:58;2.78;;;1.50;;
40154;SDS011;25875;48.202;16.334;2023-07-13T07:39:27;2.42;;;1.45;;
40154;SDS011;25875;48.202;16.334;2023-07-13T07:41:54;2.53;;;1.40;;
40154;SDS011;25875;48.202;16.334;2023-07-13T07:44:21;2.33;;;1.50;;
40154;SDS011;25875;48.202;16.334;2023-07-13T07:46:48;3.13;;;1.85;;
40154;SDS011;25875;48.202;16.334;2023-07-13T07:49:15;3.58;;;1.73;;
40154;SDS011;25875;48.202;16.334;2023-07-13T07:51:42;2.50;;;1.58;;
40154;SDS011;25875;48.202;16.334;2023-07-13T07:54:08;2.67;;;1.52;;
40154;SDS011;25875;48.202;16.334;2023-07-13T07:56:36;2.90;;;1.65;;
40154;SDS011;25875;48.202;16.334;2023-07-13T07:59:03;2.50;;;1.55;;
40154;SDS011;25875;48.202;16.334;2023-07-13T08:01:30;2.97;;;1.80;;
40154;SDS011;25875;48.202;16.334;2023-07-13T08:03:56;3.30;;;1.80;;
40154;SDS011;25875;48.202;16.334;2023-07-13T08:06:23;2.72;;;1.70;;
40154;SDS011;25875;48.202;16.334;2023-07-13T08:08:50;5.50;;;1.90;;
40154;SDS011;25875;48.202;16.334;2023-07-13T08:11:17;2.20;;;1.40;;
40154;SDS011;25875;48.202;16.334;2023-07-13T08:13:45;3.33;;;1.77;;
40154;SDS011;25875;48.202;16.334;2023-07-13T08:16:12;2.50;;;1.55;;
40154;SDS011;25875;48.202;16.334;2023-07-13T08:18:39;3.13;;;1.80;;
40154;SDS011;25875;48.202;16.334;2023-07-13T08:21:06;2.60;;;1.77;;
40154;SDS011;25875;48.202;16.334;2023-07-13T08:23:34;2.95;;;1.60;;
40154;SDS011;25875;48.202;16.334;2023-07-13T08:26:01;3.05;;;2.08;;
40154;SDS011;25875;48.202;16.334;2023-07-13T08:28:29;4.97;;;1.77;;
40154;SDS011;25875;48.202;16.334;2023-07-13T08:31:01;5.65;;;2.03;;
40154;SDS011;25875;48.202;16.334;2023-07-13T08:33:28;3.45;;;1.98;;
40154;SDS011;25875;48.202;16.334;2023-07-13T08:35:55;2.63;;;1.83;;
40154;SDS011;25875;48.202;16.334;2023-07-13T08:38:22;2.70;;;1.90;;
40154;SDS011;25875;48.202;16.334;2023-07-13T08:40:50;3.20;;;2.20;;
40154;SDS011;25875;48.202;16.334;2023-07-13T08:43:19;2.65;;;1.77;;
40154;SDS011;25875;48.202;16.334;2023-07-13T08:45:49;3.92;;;2.00;;
40154;SDS011;25875;48.202;16.334;2023-07-13T08:48:23;3.35;;;2.05;;
40154;SDS011;25875;48.202;16.334;2023-07-13T08:50:55;4.13;;;2.10;;
40154;SDS011;25875;48.202;16.334;2023-07-13T08:53:28;3.25;;;2.10;;
40154;SDS011;25875;48.202;16.334;2023-07-13T08:56:17;3.42;;;2.10;;
40154;SDS011;25875;48.202;16.334;2023-07-13T08:58:48;5.05;;;2.00;;
40154;SDS011;25875;48.202;16.334;2023-07-13T09:01:22;3.00;;;2.10;;
40154;SDS011;25875;48.202;16.334;2023-07-13T09:03:57;3.03;;;2.33;;
40154;SDS011;25875;48.202;16.334;2023-07-13T09:06:32;3.28;;;2.55;;
40154;SDS011;25875;48.202;16.334;2023-07-13T09:09:15;3.28;;;2.50;;
40154;SDS011;25875;48.202;16.334;2023-07-13T09:11:54;4.03;;;2.38;;
40154;SDS011;25875;48.202;16.334;2023-07-13T09:14:35;4.10;;;2.67;;
40154;SDS011;25875;48.202;16.334;2023-07-13T09:17:10;4.68;;;2.63;;
40154;SDS011;25875;48.202;16.334;2023-07-13T09:19:42;5.22;;;2.70;;
40154;SDS011;25875;48.202;16.334;2023-07-13T09:22:13;4.00;;;2.88;;
40154;SDS011;25875;48.202;16.334;2023-07-13T09:24:49;3.77;;;3.07;;
40154;SDS011;25875;48.202;16.334;2023-07-13T09:27:21;3.90;;;2.90;;
40154;SDS011;25875;48.202;16.334;2023-07-13T09:29:51;4.50;;;3.05;;
40154;SDS011;25875;48.202;16.334;2023-07-13T09:32:23;3.67;;;2.90;;
40154;SDS011;25875;48.202;16.334;2023-07-13T09:34:53;3.65;;;3.00;;
40154;SDS011;25875;48.202;16.334;2023-07-13T09:37:21;6.20;;;3.05;;
40154;SDS011;25875;48.202;16.334;2023-07-13T09:39:54;4.00;;;3.17;;
40154;SDS011;25875;48.202;16.334;2023-07-13T09:42:22;3.95;;;2.85;;
40154;SDS011;25875;48.202;16.334;2023-07-13T09:44:51;3.40;;;2.80;;
40154;SDS011;25875;48.202;16.334;2023-07-13T09:47:20;4.50;;;2.92;;
40154;SDS011;25875;48.202;16.334;2023-07-13T09:49:54;3.97;;;3.03;;
40154;SDS011;25875;48.202;16.334;2023-07-13T09:52:21;8.20;;;3.88;;
40154;SDS011;25875;48.202;16.334;2023-07-13T09:54:48;3.67;;;2.72;;
40154;SDS011;25875;48.202;16.334;2023-07-13T09:57:17;4.20;;;2.92;;
40154;SDS011;25875;48.202;16.334;2023-07-13T09:59:46;4.00;;;2.88;;
40154;SDS011;25875;48.202;16.334;2023-07-13T10:02:23;4.25;;;3.15;;
40154;SDS011;25875;48.202;16.334;2023-07-13T10:04:56;4.82;;;3.22;;
40154;SDS011;25875;48.202;16.334;2023-07-13T10:07:24;5.75;;;3.05;;
40154;SDS011;25875;48.202;16.334;2023-07-13T10:09:51;3.72;;;3.15;;
40154;SDS011;25875;48.202;16.334;2023-07-13T10:12:19;5.50;;;3.40;;
40154;SDS011;25875;48.202;16.334;2023-07-13T10:14:48;4.72;;;3.05;;
40154;SDS011;25875;48.202;16.334;2023-07-13T10:17:18;4.22;;;2.70;;
40154;SDS011;25875;48.202;16.334;2023-07-13T10:19:51;4.40;;;3.63;;
40154;SDS011;25875;48.202;16.334;2023-07-13T10:22:22;3.63;;;2.92;;
40154;SDS011;25875;48.202;16.334;2023-07-13T10:27:13;4.40;;;3.08;;
40154;SDS011;25875;48.202;16.334;2023-07-13T10:29:44;5.53;;;3.67;;
40154;SDS011;25875;48.202;16.334;2023-07-13T10:32:14;5.03;;;3.28;;
40154;SDS011;25875;48.202;16.334;2023-07-13T10:34:42;4.80;;;2.95;;
40154;SDS011;25875;48.202;16.334;2023-07-13T10:37:15;4.28;;;3.30;;
40154;SDS011;25875;48.202;16.334;2023-07-13T10:39:45;4.07;;;2.97;;
40154;SDS011;25875;48.202;16.334;2023-07-13T10:42:16;4.45;;;3.22;;
40154;SDS011;25875;48.202;16.334;2023-07-13T10:44:51;8.93;;;3.15;;
40154;SDS011;25875;48.202;16.334;2023-07-13T10:47:18;5.22;;;3.25;;
40154;SDS011;25875;48.202;16.334;2023-07-13T10:49:45;3.90;;;3.20;;
40154;SDS011;25875;48.202;16.334;2023-07-13T10:52:39;4.40;;;2.70;;
40154;SDS011;25875;48.202;16.334;2023-07-13T10:58:02;4.60;;;3.50;;
40154;SDS011;25875;48.202;16.334;2023-07-13T11:00:43;3.63;;;2.90;;
40154;SDS011;25875;48.202;16.334;2023-07-13T11:03:13;4.40;;;3.15;;
40154;SDS011;25875;48.202;16.334;2023-07-13T11:05:43;3.97;;;3.22;;
40154;SDS011;25875;48.202;16.334;2023-07-13T11:08:16;6.53;;;3.10;;
40154;SDS011;25875;48.202;16.334;2023-07-13T11:10:51;4.88;;;2.85;;
40154;SDS011;25875;48.202;16.334;2023-07-13T11:13:57;6.85;;;3.00;;
40154;SDS011;25875;48.202;16.334;2023-07-13T11:16:41;3.40;;;2.80;;
40154;SDS011;25875;48.202;16.334;2023-07-13T11:19:27;4.20;;;3.13;;
40154;SDS011;25875;48.202;16.334;2023-07-13T11:22:22;4.03;;;3.20;;
40154;SDS011;25875;48.202;16.334;2023-07-13T11:24:52;4.15;;;2.85;;
40154;SDS011;25875;48.202;16.334;2023-07-13T11:27:32;4.57;;;3.10;;
40154;SDS011;25875;48.202;16.334;2023-07-13T11:33:13;3.97;;;2.90;;
40154;SDS011;25875;48.202;16.334;2023-07-13T11:35:50;3.35;;;2.65;;
40154;SDS011;25875;48.202;16.334;2023-07-13T11:40:44;3.58;;;2.40;;
40154;SDS011;25875;48.202;16.334;2023-07-13T11:43:12;4.95;;;2.88;;
40154;SDS011;25875;48.202;16.334;2023-07-13T11:45:40;5.70;;;2.97;;
40154;SDS011;25875;48.202;16.334;2023-07-13T11:48:17;3.22;;;2.60;;
40154;SDS011;25875;48.202;16.334;2023-07-13T11:50:49;3.38;;;2.80;;
40154;SDS011;25875;48.202;16.334;2023-07-13T11:53:18;4.22;;;2.40;;
40154;SDS011;25875;48.202;16.334;2023-07-13T11:55:46;4.03;;;3.03;;
40154;SDS011;25875;48.202;16.334;2023-07-13T11:58:15;4.70;;;2.85;;
40154;SDS011;25875;48.202;16.334;2023-07-13T12:00:46;5.25;;;2.60;;
40154;SDS011;25875;48.202;16.334;2023-07-13T12:03:14;4.35;;;2.72;;
40154;SDS011;25875;48.202;16.334;2023-07-13T12:05:54;5.30;;;3.10;;
40154;SDS011;25875;48.202;16.334;2023-07-13T12:08:23;4.95;;;2.63;;
40154;SDS011;25875;48.202;16.334;2023-07-13T12:10:58;4.32;;;3.08;;
40154;SDS011;25875;48.202;16.334;2023-07-13T12:13:26;3.75;;;2.50;;
40154;SDS011;25875;48.202;16.334;2023-07-13T12:15:55;4.65;;;3.40;;
40154;SDS011;25875;48.202;16.334;2023-07-13T12:18:23;3.90;;;2.63;;
40154;SDS011;25875;48.202;16.334;2023-07-13T12:20:57;5.57;;;3.27;;
40154;SDS011;25875;48.202;16.334;2023-07-13T12:23:27;3.80;;;2.78;;
40154;SDS011;25875;48.202;16.334;2023-07-13T12:25:58;4.30;;;3.03;;
40154;SDS011;25875;48.202;16.334;2023-07-13T12:28:31;3.75;;;2.80;;
40154;SDS011;25875;48.202;16.334;2023-07-13T12:31:00;4.43;;;3.30;;
40154;SDS011;25875;48.202;16.334;2023-07-13T12:33:29;12.15;;;10.77;;
40154;SDS011;25875;48.202;16.334;2023-07-13T12:35:57;24.33;;;19.00;;
40154;SDS011;25875;48.202;16.334;2023-07-13T12:38:28;8.70;;;6.25;;
40154;SDS011;25875;48.202;16.334;2023-07-13T12:40:57;4.50;;;3.55;;
40154;SDS011;25875;48.202;16.334;2023-07-13T12:43:25;27.25;;;21.05;;
40154;SDS011;25875;48.202;16.334;2023-07-13T12:45:57;9.88;;;8.25;;
40154;SDS011;25875;48.202;16.334;2023-07-13T12:48:25;33.88;;;24.15;;
40154;SDS011;25875;48.202;16.334;2023-07-13T12:50:52;29.77;;;26.55;;
40154;SDS011;25875;48.202;16.334;2023-07-13T12:53:21;14.20;;;10.32;;
40154;SDS011;25875;48.202;16.334;2023-07-13T12:55:50;6.72;;;4.50;;
40154;SDS011;25875;48.202;16.334;2023-07-13T12:58:26;3.75;;;3.00;;
40154;SDS011;25875;48.202;16.334;2023-07-13T13:00:55;5.25;;;4.32;;
40154;SDS011;25875;48.202;16.334;2023-07-13T13:03:30;5.10;;;3.25;;
40154;SDS011;25875;48.202;16.334;2023-07-13T13:06:00;4.88;;;2.72;;
40154;SDS011;25875;48.202;16.334;2023-07-13T13:08:28;5.15;;;3.20;;
40154;SDS011;25875;48.202;16.334;2023-07-13T13:10:55;3.85;;;2.67;;
40154;SDS011;25875;48.202;16.334;2023-07-13T13:13:23;3.72;;;2.60;;
40154;SDS011;25875;48.202;16.334;2023-07-13T13:15:50;3.60;;;2.80;;
40154;SDS011;25875;48.202;16.334;2023-07-13T13:18:19;5.72;;;4.38;;
40154;SDS011;25875;48.202;16.334;2023-07-13T13:20:47;5.60;;;4.40;;
40154;SDS011;25875;48.202;16.334;2023-07-13T13:23:15;5.45;;;3.95;;
40154;SDS011;25875;48.202;16.334;2023-07-13T13:25:43;5.10;;;3.08;;
40154;SDS011;25875;48.202;16.334;2023-07-13T13:28:13;4.32;;;2.83;;
40154;SDS011;25875;48.202;16.334;2023-07-13T13:30:44;7.78;;;3.80;;
40154;SDS011;25875;48.202;16.334;2023-07-13T13:33:13;5.45;;;3.75;;
40154;SDS011;25875;48.202;16.334;2023-07-13T13:35:41;4.38;;;3.30;;
40154;SDS011;25875;48.202;16.334;2023-07-13T13:38:09;5.93;;;4.22;;
40154;SDS011;25875;48.202;16.334;2023-07-13T13:40:39;6.15;;;3.92;;
40154;SDS011;25875;48.202;16.334;2023-07-13T13:43:16;4.95;;;3.75;;
40154;SDS011;25875;48.202;16.334;2023-07-13T13:45:45;5.00;;;3.88;;
40154;SDS011;25875;48.202;16.334;2023-07-13T13:48:16;6.43;;;5.35;;
40154;SDS011;25875;48.202;16.334;2023-07-13T13:50:44;8.07;;;6.05;;
40154;SDS011;25875;48.202;16.334;2023-07-13T13:53:12;6.60;;;4.82;;
40154;SDS011;25875;48.202;16.334;2023-07-13T13:55:39;5.80;;;3.85;;
40154;SDS011;25875;48.202;16.334;2023-07-13T13:58:07;5.93;;;3.42;;
40154;SDS011;25875;48.202;16.334;2023-07-13T14:00:34;4.95;;;3.42;;
40154;SDS011;25875;48.202;16.334;2023-07-13T14:03:03;3.50;;;2.60;;
40154;SDS011;25875;48.202;16.334;2023-07-13T14:05:32;4.32;;;2.75;;
40154;SDS011;25875;48.202;16.334;2023-07-13T14:07:59;3.40;;;2.58;;
40154;SDS011;25875;48.202;16.334;2023-07-13T14:10:26;4.07;;;3.40;;
40154;SDS011;25875;48.202;16.334;2023-07-13T14:12:53;4.53;;;3.33;;
40154;SDS011;25875;48.202;16.334;2023-07-13T14:15:23;5.18;;;4.22;;
40154;SDS011;25875;48.202;16.334;2023-07-13T14:17:51;6.20;;;3.58;;
40154;SDS011;25875;48.202;16.334;2023-07-13T14:20:21;4.05;;;2.78;;
40154;SDS011;25875;48.202;16.334;2023-07-13T14:22:49;3.83;;;2.75;;
40154;SDS011;25875;48.202;16.334;2023-07-13T14:25:20;4.20;;;2.75;;
40154;SDS011;25875;48.202;16.334;2023-07-13T14:27:48;4.78;;;3.03;;
40154;SDS011;25875;48.202;16.334;2023-07-13T14:30:22;3.78;;;2.70;;
40154;SDS011;25875;48.202;16.334;2023-07-13T14:32:49;3.92;;;2.90;;
40154;SDS011;25875;48.202;16.334;2023-07-13T14:35:16;4.28;;;2.72;;
40154;SDS011;25875;48.202;16.334;2023-07-13T14:37:47;3.25;;;2.40;;
40154;SDS011;25875;48.202;16.334;2023-07-13T14:40:14;3.72;;;2.47;;
40154;SDS011;25875;48.202;16.334;2023-07-13T14:42:43;4.00;;;2.88;;
40154;SDS011;25875;48.202;16.334;2023-07-13T14:45:12;3.45;;;2.50;;
40154;SDS011;25875;48.202;16.334;2023-07-13T14:47:40;4.55;;;2.65;;
40154;SDS011;25875;48.202;16.334;2023-07-13T14:50:11;2.95;;;1.95;;
40154;SDS011;25875;48.202;16.334;2023-07-13T14:52:41;3.08;;;2.22;;
40154;SDS011;25875;48.202;16.334;2023-07-13T14:55:11;6.82;;;3.20;;
40154;SDS011;25875;48.202;16.334;2023-07-13T14:57:39;3.42;;;2.47;;